createdAt,value
2023-03-08T00:11:23.581Z,24.1
2023-03-08T00:26:32.726Z,18.7
2023-03-08T00:41:42.260Z,27.3
2023-03-08T00:56:51.719Z,18.4
2023-03-08T01:12:00.405Z,19.4
2023-03-08T01:27:09.981Z,13
2023-03-08T01:42:19.443Z,10.4
2023-03-08T01:57:29.441Z,9.6
2023-03-08T02:12:39.277Z,8.8
2023-03-08T02:27:48.989Z,10.9
2023-03-08T02:42:58.259Z,9.8
2023-03-08T02:58:08.116Z,11
2023-03-08T03:13:17.135Z,9.7
2023-03-08T03:28:26.873Z,12.3
2023-03-08T03:43:37.390Z,12.9
2023-03-08T03:58:46.004Z,15.6
2023-03-08T04:13:55.475Z,15.7
2023-03-08T04:29:03.820Z,10.6
2023-03-08T04:44:13.368Z,9.3
2023-03-08T04:59:23.395Z,11.5
2023-03-08T05:14:37.430Z,10.3
2023-03-08T05:29:47.720Z,14.5
2023-03-08T05:44:57.575Z,14.2
2023-03-08T06:00:07.611Z,12.1
2023-03-08T06:15:17.028Z,11.7
2023-03-08T06:30:27.439Z,16.2
2023-03-08T06:45:36.932Z,15.9
2023-03-08T07:00:46.296Z,19.2
2023-03-08T07:15:56.415Z,12.1
2023-03-08T07:31:06.180Z,12.4
2023-03-08T07:46:16.597Z,17.3
2023-03-08T08:01:26.219Z,14.1
2023-03-08T08:16:38.270Z,16.2
2023-03-08T08:31:48.851Z,17.7
2023-03-08T08:46:58.092Z,21.6
2023-03-08T09:02:08.556Z,23.5
2023-03-08T09:17:19.087Z,21.3
2023-03-08T09:32:29.133Z,28
2023-03-08T09:47:39.426Z,22.3
2023-03-08T10:02:49.842Z,20.1
2023-03-08T10:17:59.740Z,24.4
2023-03-08T10:33:09.826Z,26.7
2023-03-08T10:48:19.119Z,21.3
2023-03-08T11:03:29.161Z,24
2023-03-08T11:18:39.410Z,26.2
2023-03-08T11:33:49.557Z,18.8
2023-03-08T11:48:59.976Z,22.8
2023-03-08T12:04:09.952Z,24.9
2023-03-08T12:19:20.120Z,15.2
2023-03-08T12:34:29.895Z,14.5
2023-03-08T12:49:40.229Z,18.1
2023-03-08T13:04:50.470Z,9.8
2023-03-08T13:20:00.761Z,8.7
2023-03-08T13:35:10.956Z,14.2
2023-03-08T13:50:21.157Z,12.3
2023-03-08T14:05:30.434Z,9.7
2023-03-08T14:20:39.914Z,11.7
2023-03-08T14:35:50.351Z,9.7
2023-03-08T14:51:00.408Z,17.4
2023-03-08T15:06:10.394Z,18.5
2023-03-08T15:21:19.718Z,15.9
2023-03-08T15:36:29.733Z,13.8
2023-03-08T15:51:39.392Z,11.7
2023-03-08T16:06:49.445Z,12.4
2023-03-08T16:21:59.515Z,15.6
2023-03-08T16:37:08.993Z,9.8
2023-03-08T16:52:18.746Z,13
2023-03-08T17:07:28.219Z,12.2
2023-03-08T17:22:37.656Z,13
2023-03-08T17:37:47.387Z,15.4
2023-03-08T17:52:58.060Z,12.5
2023-03-08T18:08:07.384Z,13
2023-03-08T18:23:17.478Z,12.6
2023-03-08T18:38:26.940Z,14.3
2023-03-08T18:53:38.644Z,13.5
2023-03-08T19:08:47.924Z,14.8
2023-03-08T19:23:57.720Z,14.7
2023-03-08T19:39:07.361Z,11.6
2023-03-08T19:54:16.997Z,12.2
2023-03-08T20:09:26.817Z,11.9
2023-03-08T20:24:38.406Z,16.1
2023-03-08T20:39:46.692Z,16.4
2023-03-08T20:54:56.413Z,17.1
2023-03-08T21:10:05.920Z,20.5
2023-03-08T21:25:15.420Z,22.2
2023-03-08T21:40:24.800Z,20.9
2023-03-08T21:55:33.271Z,18.4
2023-03-08T22:10:42.834Z,17.9
2023-03-08T22:25:52.738Z,18.2
2023-03-08T22:41:02.311Z,16.8
2023-03-08T22:56:11.969Z,19.1
2023-03-08T23:11:21.211Z,16.3
2023-03-08T23:26:30.529Z,15.2
2023-03-08T23:41:40.235Z,21.2
2023-03-08T23:56:49.536Z,16.2
